createdAt,value
2018-02-17T00:00:20.369Z,96.30
2018-02-17T00:01:23.660Z,96.40
2018-02-17T00:02:26.173Z,96.40
2018-02-17T00:03:28.722Z,96.30
2018-02-17T00:04:31.282Z,96.30
2018-02-17T00:05:33.833Z,96.30
2018-02-17T00:06:36.384Z,96.00
2018-02-17T00:07:39.678Z,95.90
2018-02-17T00:08:42.204Z,95.90
2018-02-17T00:09:44.764Z,96.00
2018-02-17T00:10:47.288Z,96.10
2018-02-17T00:11:49.809Z,96.30
2018-02-17T00:12:52.366Z,96.40
2018-02-17T00:13:55.071Z,96.40
2018-02-17T00:14:58.362Z,96.50
2018-02-17T00:16:00.901Z,96.50
2018-02-17T00:17:03.431Z,96.20
2018-02-17T00:18:05.954Z,96.10
2018-02-17T00:19:09.285Z,96.10
2018-02-17T00:20:11.809Z,96.10
2018-02-17T00:21:15.096Z,96.20
2018-02-17T00:22:18.381Z,96.40
2018-02-17T00:23:21.705Z,96.40
2018-02-17T00:24:24.231Z,96.40
2018-02-17T00:25:27.514Z,96.40
2018-02-17T00:26:30.807Z,96.40
2018-02-17T00:27:33.347Z,96.40
2018-02-17T00:28:35.915Z,96.60
2018-02-17T00:29:38.440Z,96.40
2018-02-17T00:30:40.965Z,96.50
2018-02-17T00:31:44.254Z,96.70
2018-02-17T00:32:47.615Z,96.60
2018-02-17T00:33:50.145Z,96.50
2018-02-17T00:34:52.668Z,96.50
2018-02-17T00:35:56.001Z,96.60
2018-02-17T00:36:58.534Z,96.60
2018-02-17T00:38:01.073Z,96.50
2018-02-17T00:39:03.595Z,96.60
2018-02-17T00:40:06.130Z,96.80
2018-02-17T00:41:08.684Z,96.80
2018-02-17T00:42:11.982Z,97.10
2018-02-17T00:43:15.272Z,97.10
2018-02-17T00:44:17.802Z,97.10
2018-02-17T00:45:20.335Z,97.10
2018-02-17T00:46:22.901Z,97.10
2018-02-17T00:47:25.427Z,97.30
2018-02-17T00:48:28.717Z,97.20
2018-02-17T00:49:32.006Z,97.30
2018-02-17T00:50:34.528Z,97.30
2018-02-17T00:51:37.105Z,97.30
2018-02-17T00:52:39.638Z,97.20
2018-02-17T00:53:42.173Z,97.20
2018-02-17T00:54:44.702Z,97.20
2018-02-17T00:55:47.220Z,97.30
2018-02-17T00:56:49.772Z,97.00
2018-02-17T00:57:52.298Z,97.20
2018-02-17T00:58:54.826Z,97.20
2018-02-17T00:59:57.487Z,97.20
2018-02-17T01:01:00.061Z,97.10
2018-02-17T01:02:02.753Z,97.00
2018-02-17T01:03:05.272Z,97.10
2018-02-17T01:04:08.598Z,97.40
2018-02-17T01:05:11.122Z,97.40
2018-02-17T01:06:14.417Z,97.30
2018-02-17T01:07:16.945Z,97.30
2018-02-17T01:08:19.512Z,97.20
2018-02-17T01:09:22.067Z,97.50
2018-02-17T01:10:24.591Z,97.20
2018-02-17T01:11:27.109Z,96.90
2018-02-17T01:12:29.675Z,96.70
2018-02-17T01:13:32.208Z,96.80
2018-02-17T01:14:34.724Z,96.70
2018-02-17T01:15:37.241Z,96.50
2018-02-17T01:16:39.809Z,96.80
2018-02-17T01:17:42.326Z,96.90
2018-02-17T01:18:45.617Z,97.00
2018-02-17T01:19:48.902Z,97.00
2018-02-17T01:20:52.185Z,97.00
2018-02-17T01:21:55.521Z,97.10
2018-02-17T01:22:58.037Z,97.00
2018-02-17T01:24:01.326Z,96.80
2018-02-17T01:25:04.637Z,96.90
2018-02-17T01:26:07.153Z,96.80
2018-02-17T01:27:09.712Z,97.00
2018-02-17T01:28:12.308Z,97.20
2018-02-17T01:29:15.596Z,97.50
2018-02-17T01:30:18.890Z,97.60
2018-02-17T01:31:21.421Z,97.60
2018-02-17T01:32:23.944Z,97.50
2018-02-17T01:33:26.500Z,97.50
2018-02-17T01:34:29.024Z,97.60
2018-02-17T01:35:31.546Z,97.60
2018-02-17T01:36:34.079Z,97.50
2018-02-17T01:37:37.365Z,97.80
2018-02-17T01:38:40.694Z,97.90
2018-02-17T01:39:43.271Z,97.90
2018-02-17T01:40:45.803Z,97.80
2018-02-17T01:41:48.333Z,97.80
2018-02-17T01:42:51.628Z,97.70
2018-02-17T01:43:54.921Z,97.70
2018-02-17T01:44:57.482Z,97.60
2018-02-17T01:46:00.776Z,97.60
2018-02-17T01:47:03.301Z,97.50
2018-02-17T01:48:05.981Z,97.50
2018-02-17T01:49:08.502Z,97.30
2018-02-17T01:50:22.980Z,97.00
2018-02-17T01:51:25.542Z,97.10
2018-02-17T01:52:28.063Z,97.20
2018-02-17T01:53:30.584Z,97.30
2018-02-17T01:54:33.106Z,97.20
2018-02-17T01:55:35.654Z,97.20
2018-02-17T01:56:38.229Z,97.10
2018-02-17T01:57:40.740Z,97.10
2018-02-17T01:58:43.253Z,97.10
2018-02-17T01:59:45.794Z,97.30
2018-02-17T02:00:48.325Z,97.20
2018-02-17T02:01:50.925Z,97.10
2018-02-17T02:02:53.465Z,97.10
2018-02-17T02:03:55.989Z,97.00
2018-02-17T02:04:58.518Z,97.00
2018-02-17T02:06:01.144Z,97.00
2018-02-17T02:07:03.696Z,97.00
2018-02-17T02:08:06.250Z,97.00
2018-02-17T02:09:08.777Z,97.10
2018-02-17T02:10:11.303Z,97.00
2018-02-17T02:11:13.829Z,96.90
2018-02-17T02:12:17.118Z,97.20
2018-02-17T02:13:20.449Z,97.00
2018-02-17T02:14:22.976Z,97.00
2018-02-17T02:15:26.274Z,97.10
2018-02-17T02:16:28.797Z,97.10
2018-02-17T02:17:31.323Z,97.20
2018-02-17T02:18:33.887Z,97.20
2018-02-17T02:19:36.408Z,97.00
2018-02-17T02:20:38.964Z,96.90
2018-02-17T02:21:41.488Z,97.00
2018-02-17T02:22:44.021Z,96.80
2018-02-17T02:23:47.326Z,96.80
2018-02-17T02:24:49.904Z,96.80
2018-02-17T02:25:52.434Z,96.90
2018-02-17T02:26:55.739Z,97.00
2018-02-17T02:27:58.261Z,97.00
2018-02-17T02:29:00.790Z,97.20
2018-02-17T02:30:03.352Z,97.30
2018-02-17T02:31:05.886Z,97.30
2018-02-17T02:32:09.177Z,97.20
2018-02-17T02:33:12.503Z,97.20
2018-02-17T02:34:15.049Z,97.20
2018-02-17T02:35:17.618Z,97.00
2018-02-17T02:36:20.156Z,97.00
2018-02-17T02:37:23.453Z,96.90
2018-02-17T02:38:25.982Z,96.90
2018-02-17T02:39:28.512Z,97.00
2018-02-17T02:40:31.080Z,97.00
2018-02-17T02:41:33.619Z,97.10
2018-02-17T02:42:36.146Z,97.40
2018-02-17T02:43:38.667Z,97.60
2018-02-17T02:44:41.191Z,97.60
2018-02-17T02:45:44.517Z,97.90
2018-02-17T02:46:47.042Z,97.60
2018-02-17T02:47:50.331Z,97.80
2018-02-17T02:48:53.622Z,97.40
2018-02-17T02:49:56.961Z,97.40
2018-02-17T02:50:59.612Z,97.40
2018-02-17T02:52:02.143Z,97.40
2018-02-17T02:53:05.442Z,97.40
2018-02-17T02:54:07.966Z,97.40
2018-02-17T02:55:10.548Z,97.30
2018-02-17T02:56:13.843Z,97.20
2018-02-17T02:57:17.155Z,97.10
2018-02-17T02:58:19.687Z,97.10
2018-02-17T02:59:23.001Z,97.30
2018-02-17T03:00:25.603Z,97.20
2018-02-17T03:01:28.927Z,97.10
2018-02-17T03:02:32.209Z,97.20
2018-02-17T03:03:35.495Z,97.00
2018-02-17T03:04:38.806Z,97.00
2018-02-17T03:05:41.391Z,97.00
2018-02-17T03:06:43.921Z,96.90
2018-02-17T03:07:47.210Z,96.70
2018-02-17T03:08:49.734Z,96.70
2018-02-17T03:09:52.257Z,96.70
2018-02-17T03:10:54.813Z,96.80
2018-02-17T03:11:57.334Z,96.80
2018-02-17T03:12:59.899Z,96.90
2018-02-17T03:14:03.213Z,96.90
2018-02-17T03:15:06.507Z,96.90
2018-02-17T03:16:09.034Z,96.90
2018-02-17T03:17:11.567Z,97.00
2018-02-17T03:18:14.142Z,97.10
2018-02-17T03:19:16.704Z,97.10
2018-02-17T03:20:19.368Z,97.10
2018-02-17T03:21:21.885Z,97.00
2018-02-17T03:22:25.181Z,97.10
2018-02-17T03:23:28.477Z,97.00
2018-02-17T03:24:31.012Z,97.00
2018-02-17T03:25:33.578Z,97.10
2018-02-17T03:26:36.105Z,97.00
2018-02-17T03:27:38.630Z,96.90
2018-02-17T03:28:41.924Z,97.00
2018-02-17T03:29:44.497Z,97.00
2018-02-17T03:30:47.022Z,97.00
2018-02-17T03:31:49.556Z,96.90
2018-02-17T03:32:52.082Z,97.00
2018-02-17T03:33:55.369Z,97.00
2018-02-17T03:34:58.694Z,96.90
2018-02-17T03:37:10.860Z,96.60
2018-02-17T03:38:13.391Z,96.80
2018-02-17T03:39:15.932Z,97.00
2018-02-17T03:40:18.502Z,97.40
2018-02-17T03:41:21.031Z,97.20
2018-02-17T03:42:23.557Z,97.00
2018-02-17T03:43:26.089Z,96.90
2018-02-17T03:44:28.616Z,96.90
2018-02-17T03:45:31.190Z,96.90
2018-02-17T03:46:33.727Z,97.20
2018-02-17T03:47:36.295Z,96.70
2018-02-17T03:48:38.812Z,96.80
2018-02-17T03:49:41.339Z,97.10
2018-02-17T03:50:44.630Z,97.20
2018-02-17T03:51:47.967Z,97.20
2018-02-17T03:52:50.488Z,97.20
2018-02-17T03:53:53.020Z,97.00
2018-02-17T03:54:55.554Z,97.20
2018-02-17T03:55:58.270Z,97.30
2018-02-17T03:57:01.589Z,97.20
2018-02-17T03:58:04.118Z,97.20
2018-02-17T03:59:07.413Z,97.10
2018-02-17T04:00:10.761Z,97.10
2018-02-17T04:01:13.288Z,97.10
2018-02-17T04:02:15.820Z,97.10
2018-02-17T04:03:19.109Z,97.10
2018-02-17T04:04:22.403Z,97.00
2018-02-17T04:05:24.961Z,97.00
2018-02-17T04:06:28.418Z,97.00
2018-02-17T04:07:30.947Z,97.00
2018-02-17T04:08:33.468Z,97.00
2018-02-17T04:09:36.757Z,97.00
2018-02-17T04:10:40.081Z,97.00
2018-02-17T04:11:42.635Z,97.00
2018-02-17T04:12:45.161Z,97.00
2018-02-17T04:13:47.678Z,97.20
2018-02-17T04:14:50.209Z,97.30
2018-02-17T04:15:53.489Z,97.40
2018-02-17T04:16:56.808Z,97.30
2018-02-17T04:17:59.329Z,97.30
2018-02-17T04:19:01.860Z,97.30
2018-02-17T04:20:04.384Z,97.50
2018-02-17T04:21:06.901Z,97.50
2018-02-17T04:22:09.464Z,97.70
2018-02-17T04:23:11.990Z,97.80
2018-02-17T04:24:14.515Z,97.90
2018-02-17T04:25:17.042Z,98.00
2018-02-17T04:26:19.564Z,98.10
2018-02-17T04:27:22.893Z,98.10
2018-02-17T04:28:25.421Z,98.40
2018-02-17T04:29:28.711Z,98.00
2018-02-17T04:30:31.232Z,98.00
2018-02-17T04:31:33.748Z,98.00
2018-02-17T04:32:36.312Z,97.90
2018-02-17T04:33:38.845Z,97.70
2018-02-17T04:34:41.370Z,97.80
2018-02-17T04:35:43.911Z,97.80
2018-02-17T04:36:46.440Z,97.80
2018-02-17T04:37:49.025Z,97.70
2018-02-17T04:38:52.315Z,97.90
2018-02-17T04:39:58.242Z,97.90
2018-02-17T04:41:06.404Z,97.90
2018-02-17T04:43:54.482Z,97.90
2018-02-17T04:44:57.004Z,97.90
2018-02-17T04:46:01.442Z,98.00
2018-02-17T04:48:49.306Z,97.70
2018-02-17T04:49:58.422Z,97.60
2018-02-17T04:51:07.341Z,97.40
2018-02-17T04:52:31.367Z,97.40
2018-02-17T04:53:39.550Z,97.40
2018-02-17T04:54:47.685Z,97.40
2018-02-17T04:56:09.953Z,97.40
2018-02-17T04:57:18.249Z,97.40
2018-02-17T05:00:04.177Z,97.30
2018-02-17T05:01:22.398Z,97.60
2018-02-17T05:02:43.590Z,97.70
2018-02-17T05:05:24.129Z,97.50
2018-02-17T05:06:30.050Z,97.40
2018-02-17T05:07:34.164Z,97.40
2018-02-17T05:08:39.128Z,97.30
2018-02-17T05:09:41.661Z,97.30
2018-02-17T05:10:44.987Z,97.20
2018-02-17T05:11:47.530Z,97.20
2018-02-17T05:12:50.053Z,97.50
2018-02-17T05:14:02.519Z,97.20
2018-02-17T05:15:19.924Z,97.20
2018-02-17T05:18:04.926Z,97.20
2018-02-17T05:19:07.501Z,97.10
2018-02-17T05:20:26.691Z,96.90
2018-02-17T05:21:39.893Z,97.10
2018-02-17T05:22:48.785Z,97.10
2018-02-17T05:23:51.332Z,97.10
2018-02-17T05:24:59.578Z,97.30
2018-02-17T05:26:04.677Z,97.50
2018-02-17T05:27:09.145Z,97.50
2018-02-17T05:28:12.157Z,97.40
2018-02-17T05:29:16.318Z,97.50
2018-02-17T05:30:18.845Z,97.60
2018-02-17T05:31:21.824Z,97.50
2018-02-17T05:32:27.825Z,97.70
2018-02-17T05:33:36.221Z,97.60
2018-02-17T05:34:53.629Z,97.50
2018-02-17T05:35:57.069Z,97.60
2018-02-17T05:37:00.512Z,97.60
2018-02-17T05:38:03.033Z,97.50
2018-02-17T05:39:06.202Z,97.80
2018-02-17T05:40:14.336Z,97.60
2018-02-17T05:41:17.327Z,97.60
2018-02-17T05:42:20.459Z,97.50
2018-02-17T05:43:22.981Z,97.50
2018-02-17T05:44:27.329Z,97.50
2018-02-17T05:45:29.864Z,97.50
2018-02-17T05:46:33.406Z,97.60
2018-02-17T05:49:12.299Z,97.40
2018-02-17T05:50:14.846Z,97.40
2018-02-17T05:51:17.373Z,97.50
2018-02-17T05:52:19.944Z,97.80
2018-02-17T05:53:22.506Z,97.80
2018-02-17T05:54:25.858Z,97.60
2018-02-17T05:55:29.270Z,97.80
2018-02-17T05:56:32.557Z,97.70
2018-02-17T05:57:35.880Z,97.70
2018-02-17T05:58:38.396Z,97.70
2018-02-17T05:59:41.703Z,97.80
2018-02-17T06:00:44.230Z,97.50
2018-02-17T06:01:46.803Z,97.40
2018-02-17T06:02:49.329Z,97.40
2018-02-17T06:03:51.864Z,97.40
2018-02-17T06:04:54.394Z,97.50
2018-02-17T06:05:56.924Z,97.50
2018-02-17T06:06:59.474Z,97.60
2018-02-17T06:08:01.992Z,97.60
2018-02-17T06:09:04.561Z,97.60
2018-02-17T06:10:07.085Z,97.60
2018-02-17T06:11:09.604Z,97.60
2018-02-17T06:12:12.902Z,97.70
2018-02-17T06:13:15.470Z,97.70
2018-02-17T06:14:18.762Z,97.70
2018-02-17T06:16:30.311Z,97.60
2018-02-17T06:17:32.841Z,97.40
2018-02-17T06:18:35.560Z,97.30
2018-02-17T06:19:38.853Z,97.30
2018-02-17T06:20:42.149Z,97.30
2018-02-17T06:21:44.686Z,97.30
2018-02-17T06:22:47.205Z,97.10
2018-02-17T06:23:49.769Z,97.20
2018-02-17T06:24:52.299Z,97.30
2018-02-17T06:25:55.645Z,97.50
2018-02-17T06:26:58.203Z,97.50
2018-02-17T06:28:00.729Z,97.90
2018-02-17T06:29:03.265Z,97.60
2018-02-17T06:30:05.789Z,97.60
2018-02-17T06:31:08.352Z,97.60
2018-02-17T06:32:10.914Z,97.30
2018-02-17T06:33:13.428Z,96.90
2018-02-17T06:34:15.992Z,96.70
2018-02-17T06:35:18.523Z,96.60
2018-02-17T06:36:21.070Z,96.40
2018-02-17T06:37:23.600Z,96.30
2018-02-17T06:38:26.921Z,96.30
2018-02-17T06:39:29.447Z,95.90
2018-02-17T06:40:31.989Z,95.90
2018-02-17T06:41:34.521Z,96.10
2018-02-17T06:42:37.108Z,96.20
2018-02-17T06:43:39.670Z,96.40
2018-02-17T06:44:42.197Z,96.50
2018-02-17T06:45:45.493Z,96.60
2018-02-17T06:46:48.015Z,96.60
2018-02-17T06:47:50.537Z,96.50
2018-02-17T06:48:53.098Z,96.60
2018-02-17T06:49:55.641Z,96.70
2018-02-17T06:50:58.931Z,96.80
2018-02-17T06:52:02.227Z,97.00
2018-02-17T06:53:04.754Z,97.30
2018-02-17T06:54:07.328Z,96.90
2018-02-17T06:55:09.850Z,96.80
2018-02-17T06:56:12.383Z,96.40
2018-02-17T06:57:14.909Z,96.70
2018-02-17T06:58:17.477Z,96.70
2018-02-17T06:59:20.049Z,96.50
2018-02-17T07:00:22.666Z,96.30
2018-02-17T07:01:25.200Z,96.20
2018-02-17T07:02:28.525Z,96.10
2018-02-17T07:03:31.053Z,96.10
2018-02-17T07:04:34.388Z,96.50
2018-02-17T07:05:36.905Z,96.50
2018-02-17T07:06:40.213Z,96.60
2018-02-17T07:07:42.737Z,96.60
2018-02-17T07:08:45.261Z,96.50
2018-02-17T07:09:47.825Z,96.30
2018-02-17T07:10:50.354Z,96.20
2018-02-17T07:11:53.693Z,96.60
2018-02-17T07:12:56.222Z,96.30
2018-02-17T07:13:58.746Z,96.20
2018-02-17T07:15:01.269Z,96.10
2018-02-17T07:16:03.800Z,95.90
2018-02-17T07:17:07.145Z,96.10
2018-02-17T07:18:09.676Z,96.10
2018-02-17T07:19:12.205Z,96.20
2018-02-17T07:20:14.734Z,96.40
2018-02-17T07:21:17.268Z,96.60
2018-02-17T07:22:19.825Z,96.60
2018-02-17T07:23:23.114Z,97.00
2018-02-17T07:24:25.640Z,97.00
2018-02-17T07:25:28.165Z,97.10
2018-02-17T07:26:30.698Z,97.20
2018-02-17T07:27:34.021Z,97.40
2018-02-17T07:28:36.582Z,97.40
2018-02-17T07:29:39.890Z,97.60
2018-02-17T07:30:42.408Z,97.60
2018-02-17T07:31:45.692Z,97.50
2018-02-17T07:32:48.276Z,97.50
2018-02-17T07:33:50.822Z,97.60
2018-02-17T07:34:54.110Z,97.70
2018-02-17T07:35:56.646Z,97.70
2018-02-17T07:36:59.174Z,97.70
2018-02-17T07:38:01.728Z,97.70
2018-02-17T07:39:04.249Z,97.70
2018-02-17T07:40:06.813Z,97.50
2018-02-17T07:41:09.342Z,97.60
2018-02-17T07:42:11.871Z,97.60
2018-02-17T07:43:14.397Z,97.60
2018-02-17T07:44:16.954Z,97.60
2018-02-17T07:45:19.477Z,97.60
2018-02-17T07:46:22.001Z,97.70
2018-02-17T07:47:24.522Z,97.70
2018-02-17T07:48:27.045Z,97.70
2018-02-17T07:49:29.622Z,97.50
2018-02-17T07:50:32.912Z,97.50
2018-02-17T07:51:36.287Z,97.30
2018-02-17T07:52:38.757Z,97.30
2018-02-17T07:53:42.071Z,97.20
2018-02-17T07:54:44.627Z,97.20
2018-02-17T07:55:47.155Z,97.20
2018-02-17T07:56:49.748Z,97.30
2018-02-17T07:57:52.291Z,97.10
2018-02-17T07:58:54.812Z,96.90
2018-02-17T07:59:57.340Z,96.90
2018-02-17T08:01:00.629Z,96.90
2018-02-17T08:02:03.922Z,96.90
2018-02-17T08:03:06.473Z,96.90
2018-02-17T08:04:09.764Z,96.80
2018-02-17T08:05:12.285Z,96.80
2018-02-17T08:06:14.810Z,96.60
2018-02-17T08:07:17.333Z,96.50
2018-02-17T08:08:20.004Z,96.60
2018-02-17T08:09:22.520Z,96.80
2018-02-17T08:10:25.063Z,96.60
2018-02-17T08:11:28.352Z,96.60
2018-02-17T08:12:30.880Z,96.60
2018-02-17T08:13:33.445Z,96.80
2018-02-17T08:14:35.982Z,96.80
2018-02-17T08:15:38.497Z,96.50
2018-02-17T08:16:41.846Z,96.60
2018-02-17T08:17:44.364Z,96.30
2018-02-17T08:18:47.682Z,96.70
2018-02-17T08:19:50.255Z,96.40
2018-02-17T08:20:52.775Z,96.50
2018-02-17T08:21:56.061Z,96.60
2018-02-17T08:22:59.344Z,96.70
2018-02-17T08:24:02.635Z,96.70
2018-02-17T08:25:05.281Z,96.70
2018-02-17T08:26:08.515Z,96.70
2018-02-17T08:27:11.045Z,96.60
2018-02-17T08:28:14.359Z,96.50
2018-02-17T08:29:16.889Z,96.50
2018-02-17T08:30:20.227Z,96.50
2018-02-17T08:31:22.793Z,96.40
2018-02-17T08:32:25.322Z,96.60
2018-02-17T08:33:27.849Z,96.50
2018-02-17T08:34:30.369Z,96.60
2018-02-17T08:35:32.882Z,96.50
2018-02-17T08:36:35.533Z,96.40
2018-02-17T08:37:38.059Z,96.30
2018-02-17T08:38:40.584Z,96.10
2018-02-17T08:39:43.131Z,95.90
2018-02-17T08:40:45.650Z,95.90
2018-02-17T08:41:48.208Z,95.90
2018-02-17T08:42:51.499Z,95.90
2018-02-17T08:43:54.031Z,95.90
2018-02-17T08:44:56.557Z,96.00
2018-02-17T08:45:59.086Z,96.10
2018-02-17T08:47:02.410Z,96.80
2018-02-17T08:48:04.932Z,96.50
2018-02-17T08:49:08.222Z,96.60
2018-02-17T08:50:10.763Z,96.60
2018-02-17T08:51:13.295Z,96.50
2018-02-17T08:52:15.865Z,96.50
2018-02-17T08:53:18.388Z,96.70
2018-02-17T08:54:21.678Z,96.70
2018-02-17T08:55:24.957Z,96.70
2018-02-17T08:56:28.251Z,96.80
2018-02-17T08:57:30.810Z,96.80
2018-02-17T08:58:34.102Z,96.60
2018-02-17T08:59:36.682Z,96.60
2018-02-17T09:00:39.237Z,96.40
2018-02-17T09:01:41.761Z,96.50
2018-02-17T09:02:44.287Z,96.50
2018-02-17T09:03:46.815Z,96.40
2018-02-17T09:04:50.095Z,96.70
2018-02-17T09:05:53.441Z,96.80
2018-02-17T09:06:55.966Z,96.70
2018-02-17T09:07:58.491Z,96.80
2018-02-17T09:09:01.054Z,96.90
2018-02-17T09:10:03.583Z,96.80
2018-02-17T09:11:06.164Z,96.90
2018-02-17T09:12:08.689Z,96.80
2018-02-17T09:13:11.974Z,96.70
2018-02-17T09:14:15.265Z,96.40
2018-02-17T09:15:17.803Z,96.40
2018-02-17T09:16:20.366Z,96.10
2018-02-17T09:17:22.890Z,95.80
2018-02-17T09:18:25.443Z,95.90
2018-02-17T09:19:27.966Z,96.20
2018-02-17T09:20:30.490Z,96.10
2018-02-17T09:21:33.011Z,96.10
2018-02-17T09:22:36.296Z,96.30
2018-02-17T09:23:39.614Z,96.30
2018-02-17T09:24:42.124Z,96.30
2018-02-17T09:25:44.657Z,96.30
2018-02-17T09:26:47.184Z,96.30
2018-02-17T09:28:59.513Z,96.30
2018-02-17T09:30:02.046Z,96.60
2018-02-17T09:31:05.343Z,95.80
2018-02-17T09:32:07.916Z,95.80
2018-02-17T09:33:10.443Z,95.70
2018-02-17T09:34:13.007Z,96.10
2018-02-17T09:35:15.534Z,96.00
2018-02-17T09:36:18.056Z,96.10
2018-02-17T09:37:21.378Z,96.10
2018-02-17T09:38:23.905Z,96.10
2018-02-17T09:39:26.432Z,96.00
2018-02-17T09:40:28.961Z,96.10
2018-02-17T09:41:31.530Z,96.10
2018-02-17T09:42:34.057Z,96.10
2018-02-17T09:43:36.570Z,96.00
2018-02-17T09:44:39.246Z,96.10
2018-02-17T09:45:41.763Z,96.20
2018-02-17T09:46:44.286Z,96.30
2018-02-17T09:47:46.825Z,96.30
2018-02-17T09:48:49.378Z,96.20
2018-02-17T09:49:52.663Z,96.40
2018-02-17T09:50:56.014Z,96.60
2018-02-17T09:51:58.554Z,96.60
2018-02-17T09:53:01.083Z,96.50
2018-02-17T09:54:04.366Z,96.80
2018-02-17T09:55:07.664Z,96.50
2018-02-17T09:56:10.221Z,96.50
2018-02-17T09:57:13.510Z,95.80
2018-02-17T09:58:16.036Z,95.80
2018-02-17T09:59:18.560Z,95.40
2018-02-17T10:00:21.072Z,95.50
2018-02-17T10:01:23.647Z,95.30
2018-02-17T10:02:26.171Z,95.30
2018-02-17T10:03:28.706Z,95.20
2018-02-17T10:04:31.251Z,95.10
2018-02-17T10:05:33.773Z,95.20
2018-02-17T10:06:36.330Z,95.30
2018-02-17T10:07:38.860Z,95.40
2018-02-17T10:08:42.181Z,95.10
2018-02-17T10:09:44.706Z,95.10
2018-02-17T10:10:48.077Z,95.20
2018-02-17T10:11:50.599Z,95.20
2018-02-17T10:12:53.174Z,95.30
2018-02-17T10:13:55.694Z,95.30
2018-02-17T10:14:58.987Z,94.70
2018-02-17T10:16:01.524Z,94.80
2018-02-17T10:17:04.049Z,94.90
2018-02-17T10:18:06.601Z,94.70
2018-02-17T10:19:09.121Z,94.50
2018-02-17T10:20:11.637Z,94.60
2018-02-17T10:21:14.169Z,94.50
2018-02-17T10:22:17.462Z,94.50
2018-02-17T10:23:20.793Z,94.50
2018-02-17T10:24:23.344Z,94.50
2018-02-17T10:25:25.866Z,95.00
2018-02-17T10:26:29.158Z,95.40
2018-02-17T10:27:32.452Z,95.10
2018-02-17T10:28:35.019Z,95.10
2018-02-17T10:29:38.305Z,95.30
2018-02-17T10:30:40.833Z,95.30
2018-02-17T10:31:43.348Z,95.30
2018-02-17T10:32:45.874Z,95.20
2018-02-17T10:33:48.450Z,95.20
2018-02-17T10:34:51.764Z,95.10
2018-02-17T10:35:54.292Z,95.10
2018-02-17T10:36:56.849Z,95.00
2018-02-17T10:37:59.381Z,94.70
2018-02-17T10:39:01.898Z,94.80
2018-02-17T10:40:05.201Z,95.20
2018-02-17T10:41:07.764Z,95.10
2018-02-17T10:42:11.054Z,94.90
2018-02-17T10:43:13.610Z,94.90
2018-02-17T10:44:16.897Z,94.60
2018-02-17T10:45:20.190Z,94.50
2018-02-17T10:46:22.727Z,94.50
2018-02-17T10:47:25.248Z,94.40
2018-02-17T10:48:27.922Z,94.30
2018-02-17T10:49:30.442Z,94.30
2018-02-17T10:50:33.762Z,94.10
2018-02-17T10:51:36.286Z,94.10
2018-02-17T10:52:39.575Z,94.10
2018-02-17T10:53:42.906Z,94.00
2018-02-17T10:54:45.425Z,94.00
2018-02-17T10:55:48.713Z,94.00
2018-02-17T10:56:52.005Z,93.80
2018-02-17T10:57:54.530Z,93.80
2018-02-17T10:58:57.112Z,93.40
2018-02-17T11:00:00.418Z,93.70
2018-02-17T11:01:02.950Z,93.70
2018-02-17T11:02:05.478Z,93.70
2018-02-17T11:03:08.005Z,94.10
2018-02-17T11:04:11.333Z,94.40
2018-02-17T11:05:13.902Z,94.40
2018-02-17T11:06:16.459Z,94.40
2018-02-17T11:07:18.993Z,94.60
2018-02-17T11:08:22.279Z,94.50
2018-02-17T11:09:25.571Z,94.30
2018-02-17T11:10:28.132Z,94.30
2018-02-17T11:11:30.660Z,94.50
2018-02-17T11:13:42.256Z,95.40
2018-02-17T11:14:44.842Z,95.60
2018-02-17T11:15:48.135Z,95.70
2018-02-17T11:16:51.470Z,95.80
2018-02-17T11:17:53.993Z,95.70
2018-02-17T11:18:56.532Z,95.90
2018-02-17T11:19:59.845Z,95.70
2018-02-17T11:21:02.369Z,95.40
2018-02-17T11:22:04.893Z,95.20
2018-02-17T11:23:07.462Z,94.90
2018-02-17T11:24:09.987Z,94.70
2018-02-17T11:25:13.284Z,94.40
2018-02-17T11:26:15.814Z,94.40
2018-02-17T11:27:18.340Z,94.60
2018-02-17T11:28:20.902Z,94.20
2018-02-17T11:29:23.430Z,94.10
2018-02-17T11:30:26.724Z,94.10
2018-02-17T11:31:30.024Z,94.20
2018-02-17T11:32:32.563Z,94.20
2018-02-17T11:33:35.133Z,94.60
2018-02-17T11:34:38.417Z,94.60
2018-02-17T11:35:41.732Z,94.40
2018-02-17T11:36:44.246Z,94.40
2018-02-17T11:37:46.811Z,94.30
2018-02-17T11:38:49.342Z,94.20
2018-02-17T11:39:51.873Z,94.10
2018-02-17T11:40:55.161Z,94.10
2018-02-17T11:41:58.481Z,94.00
2018-02-17T11:43:01.037Z,94.30
2018-02-17T11:44:03.546Z,93.90
2018-02-17T11:45:06.119Z,94.10
2018-02-17T11:46:09.510Z,94.10
2018-02-17T11:47:12.049Z,94.30
2018-02-17T11:48:14.570Z,94.40
2018-02-17T11:49:17.085Z,94.40
2018-02-17T11:50:19.654Z,94.30
2018-02-17T11:51:22.181Z,94.40
2018-02-17T11:52:24.742Z,94.40
2018-02-17T11:53:27.270Z,94.30
2018-02-17T11:54:29.800Z,94.30
2018-02-17T11:55:32.362Z,94.50
2018-02-17T11:56:34.880Z,94.40
2018-02-17T11:57:38.174Z,94.40
2018-02-17T11:58:41.477Z,94.40
2018-02-17T11:59:44.002Z,94.40
2018-02-17T12:00:46.554Z,94.50
2018-02-17T12:01:49.074Z,94.40
2018-02-17T12:02:51.617Z,94.30
2018-02-17T12:03:54.908Z,94.10
2018-02-17T12:04:58.202Z,94.00
2018-02-17T12:06:00.814Z,94.00
2018-02-17T12:07:03.343Z,94.20
2018-02-17T12:08:05.868Z,94.10
2018-02-17T12:09:08.392Z,94.10
2018-02-17T12:10:10.921Z,94.00
2018-02-17T12:11:14.254Z,93.90
2018-02-17T12:12:16.774Z,93.90
2018-02-17T12:13:20.066Z,93.90
2018-02-17T12:14:22.596Z,93.90
2018-02-17T12:15:25.128Z,94.00
2018-02-17T12:16:27.698Z,93.80
2018-02-17T12:17:30.221Z,93.60
2018-02-17T12:18:33.513Z,93.40
2018-02-17T12:19:36.033Z,93.40
2018-02-17T12:20:38.559Z,93.60
2018-02-17T12:21:41.121Z,93.90
2018-02-17T12:22:43.637Z,93.90
2018-02-17T12:23:46.153Z,93.80
2018-02-17T12:24:48.670Z,94.10
2018-02-17T12:25:51.196Z,94.20
2018-02-17T12:26:53.792Z,94.20
2018-02-17T12:27:56.320Z,94.50
2018-02-17T12:28:58.845Z,94.60
2018-02-17T12:30:01.375Z,94.70
2018-02-17T12:31:03.942Z,94.60
2018-02-17T12:32:06.475Z,94.30
2018-02-17T12:33:09.000Z,94.60
2018-02-17T12:34:11.534Z,94.50
2018-02-17T12:35:14.058Z,94.60
2018-02-17T12:36:17.378Z,94.40
2018-02-17T12:37:19.908Z,94.40
2018-02-17T12:38:23.203Z,94.10
2018-02-17T12:39:25.727Z,94.10
2018-02-17T12:40:28.254Z,94.20
2018-02-17T12:41:30.818Z,94.10
2018-02-17T12:42:33.352Z,94.00
2018-02-17T12:43:36.643Z,94.40
2018-02-17T12:44:39.961Z,94.40
2018-02-17T12:45:43.267Z,94.50
2018-02-17T12:46:45.782Z,94.50
2018-02-17T12:47:48.307Z,94.00
2018-02-17T12:48:50.871Z,93.60
2018-02-17T12:49:53.433Z,93.50
2018-02-17T12:50:55.974Z,93.50
2018-02-17T12:51:58.519Z,93.50
2018-02-17T12:53:01.045Z,93.50
2018-02-17T12:54:03.700Z,93.40
2018-02-17T12:55:06.235Z,93.30
2018-02-17T12:56:09.474Z,93.20
2018-02-17T12:57:12.786Z,93.00
2018-02-17T12:58:15.315Z,92.90
2018-02-17T12:59:17.882Z,92.70
2018-02-17T13:00:20.439Z,92.50
2018-02-17T13:01:22.951Z,92.80
2018-02-17T13:02:25.510Z,92.80
2018-02-17T13:03:28.826Z,92.80
2018-02-17T13:04:31.354Z,92.80
2018-02-17T13:05:34.649Z,93.10
2018-02-17T13:06:37.176Z,93.10
2018-02-17T13:07:39.761Z,92.80
2018-02-17T13:08:42.294Z,92.80
2018-02-17T13:09:44.823Z,92.90
2018-02-17T13:10:47.348Z,92.80
2018-02-17T13:12:58.889Z,93.30
2018-02-17T13:14:01.417Z,93.20
2018-02-17T13:15:04.738Z,93.10
2018-02-17T13:16:07.517Z,93.10
2018-02-17T13:17:10.053Z,92.90
2018-02-17T13:18:12.594Z,93.10
2018-02-17T13:19:15.158Z,93.00
2018-02-17T13:20:17.684Z,93.20
2018-02-17T13:21:20.204Z,93.30
2018-02-17T13:22:23.501Z,93.10
2018-02-17T13:23:26.017Z,93.10
2018-02-17T13:24:28.648Z,93.00
2018-02-17T13:25:31.165Z,93.00
2018-02-17T13:26:33.741Z,93.20
2018-02-17T13:27:36.269Z,92.70
2018-02-17T13:28:38.794Z,93.00
2018-02-17T13:29:42.141Z,92.60
2018-02-17T13:30:44.661Z,92.60
2018-02-17T13:31:47.181Z,92.50
2018-02-17T13:32:49.714Z,92.70
2018-02-17T13:33:52.237Z,92.80
2018-02-17T13:34:55.561Z,93.20
2018-02-17T13:35:58.095Z,93.20
2018-02-17T13:37:00.633Z,93.50
2018-02-17T13:38:03.149Z,93.70
2018-02-17T13:39:05.678Z,93.50
2018-02-17T13:40:09.000Z,93.30
2018-02-17T13:41:11.549Z,93.20
2018-02-17T13:42:14.075Z,93.30
2018-02-17T13:43:16.606Z,92.90
2018-02-17T13:44:19.144Z,93.00
2018-02-17T13:45:22.465Z,93.20
2018-02-17T13:46:24.990Z,93.20
2018-02-17T13:47:28.291Z,93.30